sensor_id;sensor_type;location;lat;lon;timestamp;P1;durP1;ratioP1;P2;durP2;ratioP2
40176;SDS011;31511;46.176;9.874;2022-09-17T00:00:39;1.67;;;1.00;;
40176;SDS011;31511;46.176;9.874;2022-09-17T00:03:05;1.58;;;1.00;;
40176;SDS011;31511;46.176;9.874;2022-09-17T00:05:31;2.38;;;1.55;;
40176;SDS011;31511;46.176;9.874;2022-09-17T00:07:58;1.83;;;1.42;;
40176;SDS011;31511;46.176;9.874;2022-09-17T00:10:24;1.90;;;1.17;;
40176;SDS011;31511;46.176;9.874;2022-09-17T00:12:50;1.55;;;1.10;;
40176;SDS011;31511;46.176;9.874;2022-09-17T00:15:16;1.65;;;0.90;;
40176;SDS011;31511;46.176;9.874;2022-09-17T00:17:42;3.85;;;1.13;;
40176;SDS011;31511;46.176;9.874;2022-09-17T00:20:09;3.15;;;0.93;;
40176;SDS011;31511;46.176;9.874;2022-09-17T00:22:36;3.70;;;1.20;;
40176;SDS011;31511;46.176;9.874;2022-09-17T00:25:03;1.75;;;1.00;;
40176;SDS011;31511;46.176;9.874;2022-09-17T00:27:31;2.33;;;1.15;;
40176;SDS011;31511;46.176;9.874;2022-09-17T00:29:57;1.58;;;0.90;;
40176;SDS011;31511;46.176;9.874;2022-09-17T00:32:23;1.92;;;0.98;;
40176;SDS011;31511;46.176;9.874;2022-09-17T00:34:50;1.60;;;1.00;;
40176;SDS011;31511;46.176;9.874;2022-09-17T00:37:17;3.28;;;1.67;;
40176;SDS011;31511;46.176;9.874;2022-09-17T00:39:43;2.63;;;1.38;;
40176;SDS011;31511;46.176;9.874;2022-09-17T00:42:13;4.95;;;1.40;;
40176;SDS011;31511;46.176;9.874;2022-09-17T00:44:53;3.08;;;1.00;;
40176;SDS011;31511;46.176;9.874;2022-09-17T00:47:24;5.25;;;0.98;;
40176;SDS011;31511;46.176;9.874;2022-09-17T00:50:03;3.58;;;1.00;;
40176;SDS011;31511;46.176;9.874;2022-09-17T00:52:32;2.08;;;1.13;;
40176;SDS011;31511;46.176;9.874;2022-09-17T00:55:00;6.13;;;1.45;;
40176;SDS011;31511;46.176;9.874;2022-09-17T00:57:29;2.55;;;1.60;;
40176;SDS011;31511;46.176;9.874;2022-09-17T00:59:56;2.50;;;1.20;;
40176;SDS011;31511;46.176;9.874;2022-09-17T01:02:22;4.72;;;1.95;;
40176;SDS011;31511;46.176;9.874;2022-09-17T01:04:48;2.90;;;1.40;;
40176;SDS011;31511;46.176;9.874;2022-09-17T01:07:51;2.40;;;1.20;;
40176;SDS011;31511;46.176;9.874;2022-09-17T01:18:10;2.30;;;1.50;;
40176;SDS011;31511;46.176;9.874;2022-09-17T01:23:35;6.38;;;1.48;;
40176;SDS011;31511;46.176;9.874;2022-09-17T01:31:47;1.92;;;1.20;;
40176;SDS011;31511;46.176;9.874;2022-09-17T01:36:53;4.22;;;1.80;;
40176;SDS011;31511;46.176;9.874;2022-09-17T01:47:23;7.85;;;1.88;;
40176;SDS011;31511;46.176;9.874;2022-09-17T01:49:56;2.35;;;1.55;;
40176;SDS011;31511;46.176;9.874;2022-09-17T01:52:26;2.25;;;1.60;;
40176;SDS011;31511;46.176;9.874;2022-09-17T01:54:56;2.63;;;1.52;;
40176;SDS011;31511;46.176;9.874;2022-09-17T01:57:28;3.53;;;1.50;;
40176;SDS011;31511;46.176;9.874;2022-09-17T02:00:07;4.00;;;1.48;;
40176;SDS011;31511;46.176;9.874;2022-09-17T02:02:39;4.32;;;1.73;;
40176;SDS011;31511;46.176;9.874;2022-09-17T02:05:29;3.10;;;1.85;;
40176;SDS011;31511;46.176;9.874;2022-09-17T02:08:02;4.28;;;1.50;;
40176;SDS011;31511;46.176;9.874;2022-09-17T02:10:33;5.32;;;1.48;;
40176;SDS011;31511;46.176;9.874;2022-09-17T02:13:01;2.50;;;1.10;;
40176;SDS011;31511;46.176;9.874;2022-09-17T02:15:32;4.00;;;1.30;;
40176;SDS011;31511;46.176;9.874;2022-09-17T02:18:06;3.58;;;0.95;;
40176;SDS011;31511;46.176;9.874;2022-09-17T02:20:41;2.88;;;1.33;;
40176;SDS011;31511;46.176;9.874;2022-09-17T02:23:17;20.27;;;3.45;;
40176;SDS011;31511;46.176;9.874;2022-09-17T02:26:07;2.13;;;1.23;;
40176;SDS011;31511;46.176;9.874;2022-09-17T02:28:36;1.90;;;1.13;;
40176;SDS011;31511;46.176;9.874;2022-09-17T02:31:05;1.98;;;1.00;;
40176;SDS011;31511;46.176;9.874;2022-09-17T02:33:32;2.30;;;0.90;;
40176;SDS011;31511;46.176;9.874;2022-09-17T02:36:00;2.38;;;0.90;;
40176;SDS011;31511;46.176;9.874;2022-09-17T02:38:28;3.95;;;1.10;;
40176;SDS011;31511;46.176;9.874;2022-09-17T02:44:08;1.17;;;1.00;;
40176;SDS011;31511;46.176;9.874;2022-09-17T02:49:20;3.15;;;1.42;;
40176;SDS011;31511;46.176;9.874;2022-09-17T03:02:22;2.10;;;1.30;;
40176;SDS011;31511;46.176;9.874;2022-09-17T03:04:50;5.57;;;1.38;;
40176;SDS011;31511;46.176;9.874;2022-09-17T03:07:17;2.58;;;1.15;;
40176;SDS011;31511;46.176;9.874;2022-09-17T03:09:44;2.35;;;1.33;;
40176;SDS011;31511;46.176;9.874;2022-09-17T03:12:10;3.00;;;0.93;;
40176;SDS011;31511;46.176;9.874;2022-09-17T03:14:37;4.30;;;0.93;;
40176;SDS011;31511;46.176;9.874;2022-09-17T03:17:03;0.93;;;0.82;;
40176;SDS011;31511;46.176;9.874;2022-09-17T03:19:31;2.72;;;1.55;;
40176;SDS011;31511;46.176;9.874;2022-09-17T03:21:57;3.50;;;2.10;;
40176;SDS011;31511;46.176;9.874;2022-09-17T03:24:25;1.45;;;1.13;;
40176;SDS011;31511;46.176;9.874;2022-09-17T03:26:53;1.98;;;1.10;;
40176;SDS011;31511;46.176;9.874;2022-09-17T03:29:19;1.90;;;1.20;;
40176;SDS011;31511;46.176;9.874;2022-09-17T03:31:45;1.83;;;1.15;;
40176;SDS011;31511;46.176;9.874;2022-09-17T03:34:11;1.38;;;1.02;;
40176;SDS011;31511;46.176;9.874;2022-09-17T03:36:37;2.38;;;1.00;;
40176;SDS011;31511;46.176;9.874;2022-09-17T03:39:03;1.65;;;1.02;;
40176;SDS011;31511;46.176;9.874;2022-09-17T03:41:29;1.33;;;0.90;;
40176;SDS011;31511;46.176;9.874;2022-09-17T03:43:55;2.08;;;0.98;;
40176;SDS011;31511;46.176;9.874;2022-09-17T03:46:22;1.60;;;0.90;;
40176;SDS011;31511;46.176;9.874;2022-09-17T03:48:51;1.38;;;1.23;;
40176;SDS011;31511;46.176;9.874;2022-09-17T03:51:17;1.08;;;0.88;;
40176;SDS011;31511;46.176;9.874;2022-09-17T03:53:43;1.35;;;1.00;;
40176;SDS011;31511;46.176;9.874;2022-09-17T03:56:10;1.45;;;0.90;;
40176;SDS011;31511;46.176;9.874;2022-09-17T03:58:36;1.65;;;0.85;;
40176;SDS011;31511;46.176;9.874;2022-09-17T04:01:03;1.48;;;1.10;;
40176;SDS011;31511;46.176;9.874;2022-09-17T04:03:30;2.53;;;0.95;;
40176;SDS011;31511;46.176;9.874;2022-09-17T04:05:58;2.10;;;1.00;;
40176;SDS011;31511;46.176;9.874;2022-09-17T04:08:25;2.00;;;1.00;;
40176;SDS011;31511;46.176;9.874;2022-09-17T04:10:54;1.40;;;1.00;;
40176;SDS011;31511;46.176;9.874;2022-09-17T04:13:21;1.38;;;1.00;;
40176;SDS011;31511;46.176;9.874;2022-09-17T04:15:49;2.22;;;0.80;;
40176;SDS011;31511;46.176;9.874;2022-09-17T04:18:16;3.20;;;0.98;;
40176;SDS011;31511;46.176;9.874;2022-09-17T04:20:42;6.13;;;0.93;;
40176;SDS011;31511;46.176;9.874;2022-09-17T04:23:09;2.35;;;1.00;;
40176;SDS011;31511;46.176;9.874;2022-09-17T04:25:36;1.63;;;1.17;;
40176;SDS011;31511;46.176;9.874;2022-09-17T04:28:02;1.25;;;0.90;;
40176;SDS011;31511;46.176;9.874;2022-09-17T04:30:28;3.22;;;1.27;;
40176;SDS011;31511;46.176;9.874;2022-09-17T04:32:54;2.15;;;1.35;;
40176;SDS011;31511;46.176;9.874;2022-09-17T04:35:21;2.25;;;1.00;;
40176;SDS011;31511;46.176;9.874;2022-09-17T04:37:53;2.55;;;1.13;;
40176;SDS011;31511;46.176;9.874;2022-09-17T04:40:20;2.90;;;1.00;;
40176;SDS011;31511;46.176;9.874;2022-09-17T04:42:51;1.88;;;1.00;;
40176;SDS011;31511;46.176;9.874;2022-09-17T04:45:17;8.70;;;1.17;;
40176;SDS011;31511;46.176;9.874;2022-09-17T04:47:43;1.40;;;0.82;;
40176;SDS011;31511;46.176;9.874;2022-09-17T04:50:09;1.73;;;1.00;;
40176;SDS011;31511;46.176;9.874;2022-09-17T04:52:36;2.83;;;1.02;;
40176;SDS011;31511;46.176;9.874;2022-09-17T04:55:02;1.65;;;1.02;;
40176;SDS011;31511;46.176;9.874;2022-09-17T04:57:30;2.53;;;1.15;;
40176;SDS011;31511;46.176;9.874;2022-09-17T04:59:56;1.15;;;0.90;;
40176;SDS011;31511;46.176;9.874;2022-09-17T05:02:24;2.67;;;1.00;;
40176;SDS011;31511;46.176;9.874;2022-09-17T05:04:53;2.63;;;1.17;;
40176;SDS011;31511;46.176;9.874;2022-09-17T05:07:21;3.47;;;0.90;;
40176;SDS011;31511;46.176;9.874;2022-09-17T05:09:48;2.13;;;1.00;;
40176;SDS011;31511;46.176;9.874;2022-09-17T05:12:15;2.63;;;0.88;;
40176;SDS011;31511;46.176;9.874;2022-09-17T05:14:42;1.23;;;0.90;;
40176;SDS011;31511;46.176;9.874;2022-09-17T05:17:08;1.92;;;1.15;;
40176;SDS011;31511;46.176;9.874;2022-09-17T05:19:34;1.48;;;1.00;;
40176;SDS011;31511;46.176;9.874;2022-09-17T05:22:00;1.27;;;0.90;;
40176;SDS011;31511;46.176;9.874;2022-09-17T05:24:28;1.40;;;0.98;;
40176;SDS011;31511;46.176;9.874;2022-09-17T05:26:55;2.80;;;1.00;;
40176;SDS011;31511;46.176;9.874;2022-09-17T05:29:23;1.55;;;1.00;;
40176;SDS011;31511;46.176;9.874;2022-09-17T05:31:51;2.25;;;0.93;;
40176;SDS011;31511;46.176;9.874;2022-09-17T05:34:18;3.70;;;1.95;;
40176;SDS011;31511;46.176;9.874;2022-09-17T05:36:44;3.17;;;1.00;;
40176;SDS011;31511;46.176;9.874;2022-09-17T05:39:10;0.68;;;0.60;;
40176;SDS011;31511;46.176;9.874;2022-09-17T05:41:37;1.45;;;1.08;;
40176;SDS011;31511;46.176;9.874;2022-09-17T05:44:03;2.35;;;1.25;;
40176;SDS011;31511;46.176;9.874;2022-09-17T05:46:31;1.42;;;0.52;;
40176;SDS011;31511;46.176;9.874;2022-09-17T05:48:58;2.78;;;0.93;;
40176;SDS011;31511;46.176;9.874;2022-09-17T05:51:25;1.63;;;1.10;;
40176;SDS011;31511;46.176;9.874;2022-09-17T05:53:54;3.35;;;1.05;;
40176;SDS011;31511;46.176;9.874;2022-09-17T05:56:21;3.40;;;0.93;;
40176;SDS011;31511;46.176;9.874;2022-09-17T05:58:49;3.45;;;1.23;;
40176;SDS011;31511;46.176;9.874;2022-09-17T06:01:16;1.10;;;0.90;;
40176;SDS011;31511;46.176;9.874;2022-09-17T06:03:42;2.80;;;1.02;;
40176;SDS011;31511;46.176;9.874;2022-09-17T06:06:08;2.28;;;1.30;;
40176;SDS011;31511;46.176;9.874;2022-09-17T06:08:35;2.33;;;1.00;;
40176;SDS011;31511;46.176;9.874;2022-09-17T06:11:05;1.08;;;0.93;;
40176;SDS011;31511;46.176;9.874;2022-09-17T06:13:32;1.85;;;0.82;;
40176;SDS011;31511;46.176;9.874;2022-09-17T06:15:58;5.15;;;0.90;;
40176;SDS011;31511;46.176;9.874;2022-09-17T06:18:29;1.35;;;0.60;;
40176;SDS011;31511;46.176;9.874;2022-09-17T06:21:00;0.98;;;0.70;;
40176;SDS011;31511;46.176;9.874;2022-09-17T06:23:31;1.48;;;0.70;;
40176;SDS011;31511;46.176;9.874;2022-09-17T06:26:01;0.93;;;0.70;;
40176;SDS011;31511;46.176;9.874;2022-09-17T06:28:29;1.27;;;0.80;;
40176;SDS011;31511;46.176;9.874;2022-09-17T06:31:00;3.53;;;0.73;;
40176;SDS011;31511;46.176;9.874;2022-09-17T06:33:26;5.75;;;1.40;;
40176;SDS011;31511;46.176;9.874;2022-09-17T06:35:59;2.47;;;1.25;;
40176;SDS011;31511;46.176;9.874;2022-09-17T06:38:27;2.70;;;0.98;;
40176;SDS011;31511;46.176;9.874;2022-09-17T06:40:56;2.70;;;0.85;;
40176;SDS011;31511;46.176;9.874;2022-09-17T06:43:24;3.35;;;1.63;;
40176;SDS011;31511;46.176;9.874;2022-09-17T06:45:53;2.80;;;1.23;;
40176;SDS011;31511;46.176;9.874;2022-09-17T06:48:21;3.05;;;1.00;;
40176;SDS011;31511;46.176;9.874;2022-09-17T06:50:50;3.25;;;0.90;;
40176;SDS011;31511;46.176;9.874;2022-09-17T06:53:18;0.65;;;0.65;;
40176;SDS011;31511;46.176;9.874;2022-09-17T06:55:44;4.50;;;1.50;;
40176;SDS011;31511;46.176;9.874;2022-09-17T06:58:10;2.20;;;0.60;;
40176;SDS011;31511;46.176;9.874;2022-09-17T07:00:38;3.50;;;1.08;;
40176;SDS011;31511;46.176;9.874;2022-09-17T07:03:04;4.97;;;0.73;;
40176;SDS011;31511;46.176;9.874;2022-09-17T07:05:30;2.97;;;1.08;;
40176;SDS011;31511;46.176;9.874;2022-09-17T07:08:00;3.58;;;0.90;;
40176;SDS011;31511;46.176;9.874;2022-09-17T07:10:31;0.98;;;0.65;;
40176;SDS011;31511;46.176;9.874;2022-09-17T07:12:57;1.00;;;0.60;;
40176;SDS011;31511;46.176;9.874;2022-09-17T07:15:23;1.50;;;0.80;;
40176;SDS011;31511;46.176;9.874;2022-09-17T07:17:49;0.95;;;0.63;;
40176;SDS011;31511;46.176;9.874;2022-09-17T07:20:15;1.60;;;1.00;;
40176;SDS011;31511;46.176;9.874;2022-09-17T07:22:42;0.75;;;0.50;;
40176;SDS011;31511;46.176;9.874;2022-09-17T07:25:08;0.60;;;0.50;;
40176;SDS011;31511;46.176;9.874;2022-09-17T07:27:34;0.73;;;0.40;;
40176;SDS011;31511;46.176;9.874;2022-09-17T07:30:00;0.63;;;0.30;;
40176;SDS011;31511;46.176;9.874;2022-09-17T07:32:30;0.68;;;0.30;;
40176;SDS011;31511;46.176;9.874;2022-09-17T07:34:56;3.22;;;0.50;;
40176;SDS011;31511;46.176;9.874;2022-09-17T07:37:23;0.35;;;0.10;;
40176;SDS011;31511;46.176;9.874;2022-09-17T07:39:52;0.00;;;0.00;;
40176;SDS011;31511;46.176;9.874;2022-09-17T07:42:18;0.32;;;0.20;;
40176;SDS011;31511;46.176;9.874;2022-09-17T07:44:46;0.20;;;0.20;;
40176;SDS011;31511;46.176;9.874;2022-09-17T07:47:12;0.50;;;0.17;;
40176;SDS011;31511;46.176;9.874;2022-09-17T07:49:39;0.32;;;0.25;;
40176;SDS011;31511;46.176;9.874;2022-09-17T07:52:05;0.10;;;0.10;;
40176;SDS011;31511;46.176;9.874;2022-09-17T07:54:32;0.30;;;0.10;;
40176;SDS011;31511;46.176;9.874;2022-09-17T07:56:58;0.13;;;0.10;;
40176;SDS011;31511;46.176;9.874;2022-09-17T07:59:26;0.22;;;0.13;;
40176;SDS011;31511;46.176;9.874;2022-09-17T08:01:55;0.00;;;0.00;;
40176;SDS011;31511;46.176;9.874;2022-09-17T08:04:21;0.08;;;0.08;;
40176;SDS011;31511;46.176;9.874;2022-09-17T08:06:47;0.30;;;0.10;;
40176;SDS011;31511;46.176;9.874;2022-09-17T08:09:14;0.00;;;0.00;;
40176;SDS011;31511;46.176;9.874;2022-09-17T08:11:45;1.90;;;0.20;;
40176;SDS011;31511;46.176;9.874;2022-09-17T08:14:12;4.78;;;0.20;;
40176;SDS011;31511;46.176;9.874;2022-09-17T08:16:39;0.15;;;0.10;;
40176;SDS011;31511;46.176;9.874;2022-09-17T08:19:06;0.00;;;0.00;;
40176;SDS011;31511;46.176;9.874;2022-09-17T08:21:41;0.50;;;0.00;;
40176;SDS011;31511;46.176;9.874;2022-09-17T08:24:07;0.17;;;0.15;;
40176;SDS011;31511;46.176;9.874;2022-09-17T08:26:34;0.10;;;0.10;;
40176;SDS011;31511;46.176;9.874;2022-09-17T08:29:00;1.00;;;0.63;;
40176;SDS011;31511;46.176;9.874;2022-09-17T08:31:26;0.15;;;0.10;;
40176;SDS011;31511;46.176;9.874;2022-09-17T08:33:54;0.20;;;0.20;;
40176;SDS011;31511;46.176;9.874;2022-09-17T08:36:24;0.50;;;0.25;;
40176;SDS011;31511;46.176;9.874;2022-09-17T08:38:53;0.40;;;0.30;;
40176;SDS011;31511;46.176;9.874;2022-09-17T08:46:39;0.57;;;0.30;;
40176;SDS011;31511;46.176;9.874;2022-09-17T08:49:12;1.60;;;0.35;;
40176;SDS011;31511;46.176;9.874;2022-09-17T08:51:48;0.20;;;0.20;;
40176;SDS011;31511;46.176;9.874;2022-09-17T08:56:45;0.40;;;0.30;;
40176;SDS011;31511;46.176;9.874;2022-09-17T09:01:58;1.08;;;0.30;;
40176;SDS011;31511;46.176;9.874;2022-09-17T09:04:34;1.45;;;0.20;;
40176;SDS011;31511;46.176;9.874;2022-09-17T09:07:07;0.10;;;0.10;;
40176;SDS011;31511;46.176;9.874;2022-09-17T09:09:36;1.23;;;0.30;;
40176;SDS011;31511;46.176;9.874;2022-09-17T09:12:04;0.15;;;0.15;;
40176;SDS011;31511;46.176;9.874;2022-09-17T09:14:36;0.30;;;0.30;;
40176;SDS011;31511;46.176;9.874;2022-09-17T09:17:07;0.47;;;0.20;;
40176;SDS011;31511;46.176;9.874;2022-09-17T09:19:40;0.30;;;0.15;;
40176;SDS011;31511;46.176;9.874;2022-09-17T09:25:01;0.70;;;0.17;;
40176;SDS011;31511;46.176;9.874;2022-09-17T09:30:02;2.35;;;0.20;;
40176;SDS011;31511;46.176;9.874;2022-09-17T09:35:02;0.40;;;0.30;;
40176;SDS011;31511;46.176;9.874;2022-09-17T09:37:31;0.70;;;0.40;;
40176;SDS011;31511;46.176;9.874;2022-09-17T09:40:02;0.35;;;0.20;;
40176;SDS011;31511;46.176;9.874;2022-09-17T09:42:32;0.63;;;0.30;;
40176;SDS011;31511;46.176;9.874;2022-09-17T09:44:59;0.70;;;0.30;;
40176;SDS011;31511;46.176;9.874;2022-09-17T09:47:35;0.17;;;0.15;;
40176;SDS011;31511;46.176;9.874;2022-09-17T09:50:15;1.63;;;0.40;;
40176;SDS011;31511;46.176;9.874;2022-09-17T09:58:02;2.17;;;0.30;;
40176;SDS011;31511;46.176;9.874;2022-09-17T10:00:35;0.57;;;0.27;;
40176;SDS011;31511;46.176;9.874;2022-09-17T10:03:21;0.22;;;0.20;;
40176;SDS011;31511;46.176;9.874;2022-09-17T10:05:54;1.48;;;0.30;;
40176;SDS011;31511;46.176;9.874;2022-09-17T10:08:23;0.20;;;0.10;;
40176;SDS011;31511;46.176;9.874;2022-09-17T10:13:27;0.82;;;0.15;;
40176;SDS011;31511;46.176;9.874;2022-09-17T10:15:56;0.10;;;0.10;;
40176;SDS011;31511;46.176;9.874;2022-09-17T10:18:32;1.00;;;0.30;;
40176;SDS011;31511;46.176;9.874;2022-09-17T10:20:59;3.55;;;0.50;;
40176;SDS011;31511;46.176;9.874;2022-09-17T10:23:31;0.00;;;0.00;;
40176;SDS011;31511;46.176;9.874;2022-09-17T10:26:00;0.20;;;0.10;;
40176;SDS011;31511;46.176;9.874;2022-09-17T10:28:29;0.40;;;0.10;;
40176;SDS011;31511;46.176;9.874;2022-09-17T10:31:04;1.20;;;0.10;;
40176;SDS011;31511;46.176;9.874;2022-09-17T10:33:34;0.35;;;0.10;;
40176;SDS011;31511;46.176;9.874;2022-09-17T10:36:03;0.13;;;0.13;;
40176;SDS011;31511;46.176;9.874;2022-09-17T10:43:33;0.00;;;0.00;;
40176;SDS011;31511;46.176;9.874;2022-09-17T10:45:59;0.40;;;0.20;;
40176;SDS011;31511;46.176;9.874;2022-09-17T10:48:30;1.95;;;0.10;;
40176;SDS011;31511;46.176;9.874;2022-09-17T10:50:56;3.50;;;0.10;;
40176;SDS011;31511;46.176;9.874;2022-09-17T10:53:24;0.00;;;0.00;;
40176;SDS011;31511;46.176;9.874;2022-09-17T10:55:56;0.00;;;0.00;;
40176;SDS011;31511;46.176;9.874;2022-09-17T10:58:34;0.08;;;0.05;;
40176;SDS011;31511;46.176;9.874;2022-09-17T11:03:48;0.60;;;0.10;;
40176;SDS011;31511;46.176;9.874;2022-09-17T11:06:20;0.08;;;0.08;;
40176;SDS011;31511;46.176;9.874;2022-09-17T11:14:09;0.13;;;0.10;;
40176;SDS011;31511;46.176;9.874;2022-09-17T11:16:45;0.25;;;0.00;;
40176;SDS011;31511;46.176;9.874;2022-09-17T11:21:42;1.42;;;0.00;;
40176;SDS011;31511;46.176;9.874;2022-09-17T11:24:24;0.30;;;0.00;;
40176;SDS011;31511;46.176;9.874;2022-09-17T11:32:13;0.00;;;0.00;;
40176;SDS011;31511;46.176;9.874;2022-09-17T11:34:53;1.30;;;0.00;;
40176;SDS011;31511;46.176;9.874;2022-09-17T11:37:30;0.10;;;0.00;;
40176;SDS011;31511;46.176;9.874;2022-09-17T11:40:02;0.10;;;0.10;;
40176;SDS011;31511;46.176;9.874;2022-09-17T11:43:16;0.00;;;0.00;;
40176;SDS011;31511;46.176;9.874;2022-09-17T11:45:18;2.10;;;0.10;;
40176;SDS011;31511;46.176;9.874;2022-09-17T11:50:20;0.10;;;0.00;;
40176;SDS011;31511;46.176;9.874;2022-09-17T12:01:03;0.57;;;0.00;;
40176;SDS011;31511;46.176;9.874;2022-09-17T12:03:35;0.17;;;0.03;;
40176;SDS011;31511;46.176;9.874;2022-09-17T12:06:05;0.05;;;0.00;;
40176;SDS011;31511;46.176;9.874;2022-09-17T12:08:38;0.98;;;0.00;;
40176;SDS011;31511;46.176;9.874;2022-09-17T12:13:39;0.10;;;0.00;;
40176;SDS011;31511;46.176;9.874;2022-09-17T12:16:11;0.10;;;0.00;;
40176;SDS011;31511;46.176;9.874;2022-09-17T12:21:06;0.22;;;0.03;;
40176;SDS011;31511;46.176;9.874;2022-09-17T12:23:36;0.80;;;0.10;;
40176;SDS011;31511;46.176;9.874;2022-09-17T12:28:34;0.30;;;0.00;;
40176;SDS011;31511;46.176;9.874;2022-09-17T12:44:10;0.00;;;0.00;;
40176;SDS011;31511;46.176;9.874;2022-09-17T12:46:26;2.08;;;0.05;;
40176;SDS011;31511;46.176;9.874;2022-09-17T12:49:18;0.10;;;0.10;;
40176;SDS011;31511;46.176;9.874;2022-09-17T12:51:50;0.93;;;0.10;;
40176;SDS011;31511;46.176;9.874;2022-09-17T12:54:27;0.10;;;0.10;;
40176;SDS011;31511;46.176;9.874;2022-09-17T12:59:28;1.95;;;0.10;;
40176;SDS011;31511;46.176;9.874;2022-09-17T13:17:27;1.25;;;0.00;;
40176;SDS011;31511;46.176;9.874;2022-09-17T13:20:02;1.08;;;0.00;;
40176;SDS011;31511;46.176;9.874;2022-09-17T13:22:32;0.20;;;0.10;;
40176;SDS011;31511;46.176;9.874;2022-09-17T13:25:08;0.20;;;0.10;;
40176;SDS011;31511;46.176;9.874;2022-09-17T13:27:36;0.00;;;0.00;;
40176;SDS011;31511;46.176;9.874;2022-09-17T13:30:12;1.90;;;0.00;;
40176;SDS011;31511;46.176;9.874;2022-09-17T13:37:35;0.68;;;0.10;;
40176;SDS011;31511;46.176;9.874;2022-09-17T13:40:03;2.15;;;0.10;;
40176;SDS011;31511;46.176;9.874;2022-09-17T13:42:52;0.00;;;0.00;;
40176;SDS011;31511;46.176;9.874;2022-09-17T13:45:22;2.10;;;0.20;;
40176;SDS011;31511;46.176;9.874;2022-09-17T13:47:51;0.00;;;0.00;;
40176;SDS011;31511;46.176;9.874;2022-09-17T13:50:37;0.63;;;0.08;;
40176;SDS011;31511;46.176;9.874;2022-09-17T13:55:46;1.45;;;0.10;;
40176;SDS011;31511;46.176;9.874;2022-09-17T14:00:57;0.10;;;0.00;;
40176;SDS011;31511;46.176;9.874;2022-09-17T14:08:28;0.00;;;0.00;;
40176;SDS011;31511;46.176;9.874;2022-09-17T14:10:56;0.13;;;0.10;;
40176;SDS011;31511;46.176;9.874;2022-09-17T14:13:25;0.03;;;0.03;;
40176;SDS011;31511;46.176;9.874;2022-09-17T14:15:55;0.28;;;0.10;;
40176;SDS011;31511;46.176;9.874;2022-09-17T14:21:03;0.13;;;0.13;;
40176;SDS011;31511;46.176;9.874;2022-09-17T14:23:34;0.10;;;0.10;;
40176;SDS011;31511;46.176;9.874;2022-09-17T14:26:07;0.15;;;0.08;;
40176;SDS011;31511;46.176;9.874;2022-09-17T14:31:24;0.00;;;0.00;;
40176;SDS011;31511;46.176;9.874;2022-09-17T14:33:52;0.00;;;0.00;;
40176;SDS011;31511;46.176;9.874;2022-09-17T14:36:19;0.10;;;0.10;;
40176;SDS011;31511;46.176;9.874;2022-09-17T14:38:55;2.97;;;0.10;;
40176;SDS011;31511;46.176;9.874;2022-09-17T14:41:23;2.00;;;0.10;;
40176;SDS011;31511;46.176;9.874;2022-09-17T14:43:57;0.52;;;0.13;;
40176;SDS011;31511;46.176;9.874;2022-09-17T14:46:32;0.30;;;0.00;;
40176;SDS011;31511;46.176;9.874;2022-09-17T14:51:44;2.38;;;0.13;;
40176;SDS011;31511;46.176;9.874;2022-09-17T14:56:43;0.10;;;0.00;;
40176;SDS011;31511;46.176;9.874;2022-09-17T14:59:18;0.17;;;0.00;;
40176;SDS011;31511;46.176;9.874;2022-09-17T15:01:46;1.15;;;0.15;;
40176;SDS011;31511;46.176;9.874;2022-09-17T15:06:39;0.50;;;0.28;;
40176;SDS011;31511;46.176;9.874;2022-09-17T15:09:13;2.38;;;0.20;;
40176;SDS011;31511;46.176;9.874;2022-09-17T15:11:41;0.65;;;0.32;;
40176;SDS011;31511;46.176;9.874;2022-09-17T15:14:14;0.00;;;0.00;;
40176;SDS011;31511;46.176;9.874;2022-09-17T15:16:46;0.30;;;0.10;;
40176;SDS011;31511;46.176;9.874;2022-09-17T15:19:13;0.00;;;0.00;;
40176;SDS011;31511;46.176;9.874;2022-09-17T15:21:44;0.08;;;0.08;;
40176;SDS011;31511;46.176;9.874;2022-09-17T15:26:44;0.20;;;0.00;;
40176;SDS011;31511;46.176;9.874;2022-09-17T15:29:13;0.10;;;0.00;;
40176;SDS011;31511;46.176;9.874;2022-09-17T15:31:42;2.72;;;0.00;;
40176;SDS011;31511;46.176;9.874;2022-09-17T15:34:09;0.20;;;0.10;;
40176;SDS011;31511;46.176;9.874;2022-09-17T15:36:39;0.13;;;0.03;;
40176;SDS011;31511;46.176;9.874;2022-09-17T15:41:55;0.10;;;0.10;;
40176;SDS011;31511;46.176;9.874;2022-09-17T15:44:23;0.88;;;0.30;;
40176;SDS011;31511;46.176;9.874;2022-09-17T15:46:52;0.20;;;0.17;;
40176;SDS011;31511;46.176;9.874;2022-09-17T15:49:34;0.10;;;0.00;;
40176;SDS011;31511;46.176;9.874;2022-09-17T15:54:51;2.88;;;0.10;;
40176;SDS011;31511;46.176;9.874;2022-09-17T15:57:17;0.10;;;0.10;;
40176;SDS011;31511;46.176;9.874;2022-09-17T15:59:46;0.17;;;0.10;;
40176;SDS011;31511;46.176;9.874;2022-09-17T16:02:30;0.00;;;0.00;;
40176;SDS011;31511;46.176;9.874;2022-09-17T16:07:41;0.30;;;0.10;;
40176;SDS011;31511;46.176;9.874;2022-09-17T16:10:07;0.22;;;0.10;;
40176;SDS011;31511;46.176;9.874;2022-09-17T16:12:34;0.20;;;0.10;;
40176;SDS011;31511;46.176;9.874;2022-09-17T16:15:01;0.57;;;0.10;;
40176;SDS011;31511;46.176;9.874;2022-09-17T16:17:32;0.17;;;0.10;;
40176;SDS011;31511;46.176;9.874;2022-09-17T16:20:11;0.30;;;0.20;;
40176;SDS011;31511;46.176;9.874;2022-09-17T16:22:39;0.10;;;0.10;;
40176;SDS011;31511;46.176;9.874;2022-09-17T16:25:05;0.10;;;0.10;;
40176;SDS011;31511;46.176;9.874;2022-09-17T16:27:55;0.00;;;0.00;;
40176;SDS011;31511;46.176;9.874;2022-09-17T16:30:19;0.10;;;0.10;;
40176;SDS011;31511;46.176;9.874;2022-09-17T16:32:46;0.10;;;0.10;;
40176;SDS011;31511;46.176;9.874;2022-09-17T16:35:15;0.20;;;0.10;;
40176;SDS011;31511;46.176;9.874;2022-09-17T16:37:41;0.15;;;0.10;;
40176;SDS011;31511;46.176;9.874;2022-09-17T16:40:09;0.10;;;0.10;;
40176;SDS011;31511;46.176;9.874;2022-09-17T16:42:37;0.28;;;0.28;;
40176;SDS011;31511;46.176;9.874;2022-09-17T16:45:03;0.10;;;0.10;;
40176;SDS011;31511;46.176;9.874;2022-09-17T16:47:34;0.10;;;0.10;;
40176;SDS011;31511;46.176;9.874;2022-09-17T16:50:01;0.45;;;0.10;;
40176;SDS011;31511;46.176;9.874;2022-09-17T16:52:29;0.52;;;0.10;;
40176;SDS011;31511;46.176;9.874;2022-09-17T16:54:55;0.00;;;0.00;;
40176;SDS011;31511;46.176;9.874;2022-09-17T16:57:22;0.03;;;0.03;;
40176;SDS011;31511;46.176;9.874;2022-09-17T16:59:51;0.10;;;0.10;;
40176;SDS011;31511;46.176;9.874;2022-09-17T17:02:17;0.28;;;0.15;;
40176;SDS011;31511;46.176;9.874;2022-09-17T17:04:43;0.00;;;0.00;;
40176;SDS011;31511;46.176;9.874;2022-09-17T17:07:09;0.45;;;0.10;;
40176;SDS011;31511;46.176;9.874;2022-09-17T17:09:36;1.75;;;0.17;;
40176;SDS011;31511;46.176;9.874;2022-09-17T17:12:02;0.43;;;0.20;;
40176;SDS011;31511;46.176;9.874;2022-09-17T17:14:30;0.10;;;0.10;;
40176;SDS011;31511;46.176;9.874;2022-09-17T17:16:57;0.00;;;0.00;;
40176;SDS011;31511;46.176;9.874;2022-09-17T17:19:24;0.20;;;0.10;;
40176;SDS011;31511;46.176;9.874;2022-09-17T17:21:51;0.32;;;0.00;;
40176;SDS011;31511;46.176;9.874;2022-09-17T17:24:17;0.30;;;0.00;;
40176;SDS011;31511;46.176;9.874;2022-09-17T17:26:44;2.10;;;0.20;;
40176;SDS011;31511;46.176;9.874;2022-09-17T17:29:11;0.40;;;0.10;;
40176;SDS011;31511;46.176;9.874;2022-09-17T17:31:39;0.30;;;0.20;;
40176;SDS011;31511;46.176;9.874;2022-09-17T17:34:05;0.17;;;0.10;;
40176;SDS011;31511;46.176;9.874;2022-09-17T17:36:32;0.17;;;0.10;;
40176;SDS011;31511;46.176;9.874;2022-09-17T17:38:59;0.60;;;0.30;;
40176;SDS011;31511;46.176;9.874;2022-09-17T17:41:26;1.73;;;0.10;;
40176;SDS011;31511;46.176;9.874;2022-09-17T17:43:55;1.38;;;0.20;;
40176;SDS011;31511;46.176;9.874;2022-09-17T17:46:22;0.40;;;0.10;;
40176;SDS011;31511;46.176;9.874;2022-09-17T17:48:48;0.35;;;0.10;;
40176;SDS011;31511;46.176;9.874;2022-09-17T17:51:15;0.22;;;0.10;;
40176;SDS011;31511;46.176;9.874;2022-09-17T17:53:48;0.30;;;0.13;;
40176;SDS011;31511;46.176;9.874;2022-09-17T17:56:17;0.03;;;0.03;;
40176;SDS011;31511;46.176;9.874;2022-09-17T17:58:45;0.30;;;0.20;;